Racecast

Lily Wale

Windsor-CO (CO) · 12 · FRONT RANGECO D5A5A · Compare head to head

Athlete rating 140.3 2026 TF season
Best race 141.3 TF
Races 37
Seasons 4 2023 — 2026

RankedNation #172·CO #10·CO D5A #9·FRONT RANGE #2·Team #1 ?

Speed rating — all races

Cross Country

XC speed rating

2024 XC 123.1

Fossil Ridge (CO) · Grade 11

Date Meet Event Result Place Rating Difficulty PR/SR Flags
2024-10-24 Spring Canyon Park 5000m 20:27 28th · 9th on team 125.6 +0.037 ★CR CSR
2024-10-04 Northwest Open Space 5000m 19:50.2 33rd · 7th on team 127.7 +0.020 ★CR SR CSR
2024-09-21 Lyons Middle/High School 5000m 20:12.7 33rd · 7th on team 127.7 +0.046 ★CR R SR CSR RSR
2024-09-06 Margaret W. Carpenter Recreation Center 5000m 20:38.9 18th · 4th on team 121.1 +0.014 ★CR SR CSR RSR
2024-08-31 Fort Collins High School 5000m 22:32 7th · 5th on team 113.2 +0.023 SR CSR RSR

2023 XC 122.3

Fossil Ridge (CO) · Grade 10

Date Meet Event Result Place Rating Difficulty PR/SR Flags
2023-09-22 Clement Park 5000m 20:17.7 2nd · 1st on team 126.3 +0.030 ★CR CSR
2023-09-09 Heritage High School 5000m 19:47.6 5th · 1st on team 127.0 -0.001 ★PR ★CR R SR CSR RSR
2023-09-03 Little America Golf Course 5000m 21:50.2 1st · 1st on team 120.9 +0.065 ★CR CSR
2023-08-26 Fort Collins High School 5000m 20:32 1st · 1st on team 122.0 +0.023 PR ★CR SR CSR RSR
2023-08-19 Spring Canyon Park 5000m 22:39.3 2nd · 2nd on team 115.2 +0.037 PR CR SR CSR RSR

Track & Field

TF speed rating

2026 TF 136.6

Windsor-CO (CO) · Grade 12

Date Meet Event Result Place Rating Difficulty PR/SR Flags
2026-06-22 Nike Outdoor Nationals & USATF U20 Championships 800m 2:13.25 46th · 1st on team 137.2 -0.035
2026-05-16 CHSAA State Championship 800m 2:18.08 14th · 1st on team 135.6 -0.011
2026-04-29 Longs Peak and Northern Conference Championships 800m 2:18.91 1st · 1st on team 134.4 -0.014
2026-04-23 Stutler Twilight 800m 2:12.1 2nd · 1st on team 141.3 -0.014 ★PR ★R SR RSR
2026-04-18 Randall Hess Roughrider Invitational 400m 57.37 4th · 2nd on team -0.014
2026-04-10 The Pomona Invitational 800m 2:13.39 3rd · 1st on team 140.3 -0.011 PR R SR RSR
2026-04-10 Pomona Invite 800m 2:13.39 3rd · 1st on team 140.3 -0.011
2026-04-08 Randy Yaussi PSD Meet 400m 57.14 1st · 1st on team -0.012 ★PR SR
2026-04-04 Altitude Running Invitational 400m 57.82 2nd · 2nd on team -0.012 PR SR
2026-03-28 Niwot Invitational 800m 2:18.04 4th · 1st on team 135.2 -0.014 PR R SR RSR
2026-03-21 Runners Roost of Fort Collins Invitational 400m 57.9 3rd · 1st on team -0.012 PR SR
2026-03-07 John Martin Early Bird Invite 800m 2:18.56 2nd · 1st on team 135.2 -0.011 PR R SR RSR
2026-01-15 Jimmy Carnes Indoor Invitational 800m 2:19.52 4th · 2nd on team 130.0 -0.046 PR SR RSR

2025 TF 133.9

Fossil Ridge (CO) · Grade 11

Date Meet Event Result Place Rating Difficulty PR/SR Flags
2025-05-10 Teddy's Last Chance Qualifier 800m 2:19.61 11th · 2nd on team 133.9 -0.014 PR R SR RSR
2025-04-30 Northern Conference League Meet 400m 57.92 3rd · 1st on team -0.008 PR SR
2025-04-30 Northern Conference League Meet 400m 58.79 5th · 2nd on team -0.008
2025-04-12 Pomona Invite Day #2 400m 59.93 7th · 1st on team -0.011
2025-04-11 Pomona Invite Day #1 400m 59.28 9th · 1st on team -0.011 SR
2025-03-15 Murray Kula Invitational 400m 1:00.01 4th · 1st on team -0.008 SR
2025-03-15 Murray Kula Invitational 100m 13.08 7th · 1st on team -0.008 SR

2024 TF

Fossil Ridge (CO) · Grade 10

Date Meet Event Result Place Rating Difficulty PR/SR Flags
2024-05-18 COLORADO STATE CHAMPIONSHIPS 400m 57.97 17th · 1st on team -0.011 PR SR
2024-05-03 Front Range League Championships 100m 12.62 6th · 1st on team -0.009 ★PR SR
2024-05-03 Front Range League Championships 100m 12.64 7th · 2nd on team -0.009
2024-04-13 The Pomona Invitational 400m 58.24 7th · 1st on team -0.011
2024-03-23 Broomfield Shootout 400m 58.02 2nd · 1st on team -0.012 PR SR

2023 TF 123.2

Fossil Ridge (CO) · Grade 9

Date Meet Event Result Place Rating Difficulty PR/SR Flags
2023-04-08 Legend Titan Track Clash 400m 1:01.5 9th · 3rd on team -0.003 PR SR
2023-03-11 Coyote/Panther Invitational 800m 2:32.19 5th · 3rd on team 123.2 -0.012 PR R SR RSR